• Join FlightAware (Why Join?)
  • Login
  • US Flag GB Flag 
11:02 EST


 

Airport Tracker/Info


-or-


 

Live Flight TrackerFlight Track Log ✈ N45NS ✈ 10-Sep-2013 ✈ KERI - KBJJ

Flight Track Log - Related Links

Times and Time Zones

All times are in EDT time to prevent confusion due to time zone crossing. See the N45NS flight status page for this flight to view local times or setup timezone preferences in your user account.

Time Position Orientation Groundspeed Altitude Reporting Facility
EDT Latitude Longitude Course Direction KTS MPH feet Rate Location/Type
20:37 41.9472 -80.3822 229° Southwest 255 293 9,300  Level Cleveland Center
20:38 41.8933 -80.4547 225° Southwest 272 313 11,600 2,340 Climbing Cleveland Center
20:39 41.8392 -80.5331 227° Southwest 278 320 14,000 2,340 Climbing Cleveland Center
20:40 41.8145 -80.5637 226° Southwest  Level Estimated
20:40 41.7808 -80.6167 227° Southwest 296 341 16,300  Level Cleveland Center
20:41 41.7203 -80.7028 227° Southwest 312 359 18,000 840 Climbing Cleveland Center
20:42 41.6514 -80.8000 227° Southwest 346 398 18,000  Level Cleveland Center
20:43 41.5800 -80.9022 227° Southwest 373 429 18,000  Level Cleveland Center
20:43 41.5675 -80.9217 229° Southwest 377 434 18,000  Level Cleveland Center
20:44 41.5089 -81.0019 226° Southwest 373 429 18,000 -480 Level Cleveland Center
20:44 41.4711 -81.0542 226° Southwest 375 432 17,400 -1,500 Descending Cleveland Center
20:45 41.4397 -81.1011 228° Southwest 367 422 16,500 -1,620 Descending Cleveland Center
20:46 41.3767 -81.1892 226° Southwest 367 422 15,100 -1,620 Descending Cleveland Center
20:47 41.3094 -81.2825 226° Southwest 367 422 13,300 -1,800 Descending Cleveland Center
20:48 41.2464 -81.3731 227° Southwest 350 403 11,600 -1,800 Descending Cleveland Center
20:49 41.1875 -81.4550 226° Southwest 333 383 9,700 -1,860 Descending Cleveland Center
20:50 41.1283 -81.5369 226° Southwest 306 352 7,900 -1,740 Descending Cleveland Center
20:51 41.0778 -81.6078 227° Southwest 283 326 6,300 -1,620 Descending Cleveland Center
20:52 41.0292 -81.6731 225° Southwest 260 299 4,700 -1,440 Descending Cleveland Center
20:53 40.9847 -81.7383 228° Southwest 248 285 3,500 -1,200 Descending Cleveland Center